sensor_id;sensor_type;location;lat;lon;timestamp;noise_LAeq;noise_LA_min;noise_LA_max;noise_LA01;noise_LA95
65079;Laerm;52655;52.218;5.964;2023-02-26T00:01:38;39.9;33.4;52.8;;
65079;Laerm;52655;52.218;5.964;2023-02-26T00:03:38;37.2;33.0;48.6;;
65079;Laerm;52655;52.218;5.964;2023-02-26T00:05:38;36.0;32.8;42.2;;
65079;Laerm;52655;52.218;5.964;2023-02-26T00:07:38;39.3;32.4;52.8;;
65079;Laerm;52655;52.218;5.964;2023-02-26T00:09:38;46.9;33.1;57.4;;
65079;Laerm;52655;52.218;5.964;2023-02-26T00:11:38;40.5;33.1;53.9;;
65079;Laerm;52655;52.218;5.964;2023-02-26T00:13:42;41.6;33.5;56.0;;
65079;Laerm;52655;52.218;5.964;2023-02-26T00:15:39;39.5;33.6;51.3;;
65079;Laerm;52655;52.218;5.964;2023-02-26T00:17:51;38.7;33.7;50.5;;
65079;Laerm;52655;52.218;5.964;2023-02-26T00:19:38;43.1;34.4;57.7;;
65079;Laerm;52655;52.218;5.964;2023-02-26T00:21:39;39.8;33.7;57.8;;
65079;Laerm;52655;52.218;5.964;2023-02-26T00:23:39;39.1;33.1;54.3;;
65079;Laerm;52655;52.218;5.964;2023-02-26T00:25:39;37.3;32.9;51.8;;
65079;Laerm;52655;52.218;5.964;2023-02-26T00:27:39;41.8;34.9;56.8;;
65079;Laerm;52655;52.218;5.964;2023-02-26T00:29:39;36.7;32.8;42.9;;
65079;Laerm;52655;52.218;5.964;2023-02-26T00:31:39;38.9;32.9;50.5;;
65079;Laerm;52655;52.218;5.964;2023-02-26T00:33:39;39.9;32.8;54.6;;
65079;Laerm;52655;52.218;5.964;2023-02-26T00:35:39;39.9;33.7;52.2;;
65079;Laerm;52655;52.218;5.964;2023-02-26T00:37:59;37.0;34.1;43.4;;
65079;Laerm;52655;52.218;5.964;2023-02-26T00:40:07;44.2;34.0;56.5;;
65079;Laerm;52655;52.218;5.964;2023-02-26T00:41:39;41.8;34.1;56.6;;
65079;Laerm;52655;52.218;5.964;2023-02-26T00:43:39;40.3;33.8;58.8;;
65079;Laerm;52655;52.218;5.964;2023-02-26T00:45:40;41.9;33.6;55.6;;
65079;Laerm;52655;52.218;5.964;2023-02-26T00:48:26;37.6;33.3;52.2;;
65079;Laerm;52655;52.218;5.964;2023-02-26T00:50:16;38.7;32.4;52.2;;
65079;Laerm;52655;52.218;5.964;2023-02-26T00:51:51;37.7;33.0;51.2;;
65079;Laerm;52655;52.218;5.964;2023-02-26T00:53:52;37.6;32.4;50.2;;
65079;Laerm;52655;52.218;5.964;2023-02-26T00:55:39;36.8;32.6;47.8;;
65079;Laerm;52655;52.218;5.964;2023-02-26T00:57:39;38.3;32.4;53.4;;
65079;Laerm;52655;52.218;5.964;2023-02-26T00:59:40;38.6;32.4;53.9;;
65079;Laerm;52655;52.218;5.964;2023-02-26T01:03:40;38.0;32.4;54.1;;
65079;Laerm;52655;52.218;5.964;2023-02-26T01:05:40;35.4;32.3;42.9;;
65079;Laerm;52655;52.218;5.964;2023-02-26T01:07:44;36.2;32.0;42.2;;
65079;Laerm;52655;52.218;5.964;2023-02-26T01:09:40;37.7;32.8;54.6;;
65079;Laerm;52655;52.218;5.964;2023-02-26T01:11:40;37.7;32.4;52.8;;
65079;Laerm;52655;52.218;5.964;2023-02-26T01:13:40;35.7;31.8;48.6;;
65079;Laerm;52655;52.218;5.964;2023-02-26T01:15:42;35.2;32.6;39.3;;
65079;Laerm;52655;52.218;5.964;2023-02-26T01:17:49;39.1;31.6;55.2;;
65079;Laerm;52655;52.218;5.964;2023-02-26T01:19:43;40.9;31.1;56.7;;
65079;Laerm;52655;52.218;5.964;2023-02-26T01:21:41;34.9;32.0;40.0;;
65079;Laerm;52655;52.218;5.964;2023-02-26T01:23:42;36.3;32.3;45.5;;
65079;Laerm;52655;52.218;5.964;2023-02-26T01:25:43;39.7;31.9;54.4;;
65079;Laerm;52655;52.218;5.964;2023-02-26T01:27:40;39.3;32.1;55.6;;
65079;Laerm;52655;52.218;5.964;2023-02-26T01:29:41;42.8;31.8;57.1;;
65079;Laerm;52655;52.218;5.964;2023-02-26T01:31:49;37.9;32.6;49.1;;
65079;Laerm;52655;52.218;5.964;2023-02-26T01:33:50;34.4;30.8;41.2;;
65079;Laerm;52655;52.218;5.964;2023-02-26T01:35:52;33.9;31.4;40.8;;
65079;Laerm;52655;52.218;5.964;2023-02-26T01:37:55;42.5;31.9;58.6;;
65079;Laerm;52655;52.218;5.964;2023-02-26T01:39:46;34.3;30.9;42.4;;
65079;Laerm;52655;52.218;5.964;2023-02-26T01:41:49;33.9;31.3;46.4;;
65079;Laerm;52655;52.218;5.964;2023-02-26T01:43:59;38.7;31.8;55.8;;
65079;Laerm;52655;52.218;5.964;2023-02-26T01:46:06;37.3;32.6;48.1;;
65079;Laerm;52655;52.218;5.964;2023-02-26T01:47:52;40.2;30.6;59.3;;
65079;Laerm;52655;52.218;5.964;2023-02-26T01:49:41;34.6;31.2;46.7;;
65079;Laerm;52655;52.218;5.964;2023-02-26T01:51:49;42.1;32.5;61.9;;
65079;Laerm;52655;52.218;5.964;2023-02-26T01:53:41;40.5;31.8;59.8;;
65079;Laerm;52655;52.218;5.964;2023-02-26T01:55:41;38.0;31.5;50.0;;
65079;Laerm;52655;52.218;5.964;2023-02-26T01:57:41;42.1;31.5;59.3;;
65079;Laerm;52655;52.218;5.964;2023-02-26T01:59:42;36.9;31.3;54.4;;
65079;Laerm;52655;52.218;5.964;2023-02-26T02:01:42;39.0;31.6;53.6;;
65079;Laerm;52655;52.218;5.964;2023-02-26T02:03:41;35.9;31.5;47.3;;
65079;Laerm;52655;52.218;5.964;2023-02-26T02:05:46;37.3;31.6;44.6;;
65079;Laerm;52655;52.218;5.964;2023-02-26T02:07:41;38.4;31.9;54.8;;
65079;Laerm;52655;52.218;5.964;2023-02-26T02:09:42;38.1;32.8;52.7;;
65079;Laerm;52655;52.218;5.964;2023-02-26T02:11:47;43.7;31.3;65.0;;
65079;Laerm;52655;52.218;5.964;2023-02-26T02:14:16;35.1;31.4;39.6;;
65079;Laerm;52655;52.218;5.964;2023-02-26T02:16:01;40.7;31.8;59.8;;
65079;Laerm;52655;52.218;5.964;2023-02-26T02:18:07;39.7;31.6;55.6;;
65079;Laerm;52655;52.218;5.964;2023-02-26T02:20:58;37.7;32.2;53.6;;
65079;Laerm;52655;52.218;5.964;2023-02-26T02:23:10;37.7;30.7;52.5;;
65079;Laerm;52655;52.218;5.964;2023-02-26T02:25:31;41.9;30.6;60.3;;
65079;Laerm;52655;52.218;5.964;2023-02-26T02:27:46;34.9;31.4;41.8;;
65079;Laerm;52655;52.218;5.964;2023-02-26T02:30:21;39.8;31.7;56.0;;
65079;Laerm;52655;52.218;5.964;2023-02-26T02:31:42;33.9;31.4;38.0;;
65079;Laerm;52655;52.218;5.964;2023-02-26T02:32:50;38.4;32.0;53.9;;
65079;Laerm;52655;52.218;5.964;2023-02-26T02:34:28;46.4;34.6;59.5;;
65079;Laerm;52655;52.218;5.964;2023-02-26T02:35:45;37.6;32.0;54.5;;
65079;Laerm;52655;52.218;5.964;2023-02-26T02:37:49;37.6;32.1;55.3;;
65079;Laerm;52655;52.218;5.964;2023-02-26T02:39:43;37.6;32.1;53.1;;
65079;Laerm;52655;52.218;5.964;2023-02-26T02:41:43;34.2;31.7;41.7;;
65079;Laerm;52655;52.218;5.964;2023-02-26T02:43:43;35.6;31.9;45.5;;
65079;Laerm;52655;52.218;5.964;2023-02-26T02:45:44;40.8;31.9;59.3;;
65079;Laerm;52655;52.218;5.964;2023-02-26T02:47:43;34.1;31.5;38.2;;
65079;Laerm;52655;52.218;5.964;2023-02-26T02:49:44;36.8;31.6;53.2;;
65079;Laerm;52655;52.218;5.964;2023-02-26T02:51:43;41.6;31.1;60.0;;
65079;Laerm;52655;52.218;5.964;2023-02-26T02:53:46;33.9;31.1;38.2;;
65079;Laerm;52655;52.218;5.964;2023-02-26T02:55:47;38.7;31.4;57.3;;
65079;Laerm;52655;52.218;5.964;2023-02-26T02:57:52;37.0;31.4;52.6;;
65079;Laerm;52655;52.218;5.964;2023-02-26T02:59:43;37.1;32.2;46.7;;
65079;Laerm;52655;52.218;5.964;2023-02-26T03:01:43;37.0;31.5;57.8;;
65079;Laerm;52655;52.218;5.964;2023-02-26T03:04:04;34.4;31.1;40.0;;
65079;Laerm;52655;52.218;5.964;2023-02-26T03:05:43;39.1;30.9;57.8;;
65079;Laerm;52655;52.218;5.964;2023-02-26T03:07:52;39.4;32.0;52.1;;
65079;Laerm;52655;52.218;5.964;2023-02-26T03:09:44;36.9;31.6;54.2;;
65079;Laerm;52655;52.218;5.964;2023-02-26T03:11:43;40.0;31.1;56.1;;
65079;Laerm;52655;52.218;5.964;2023-02-26T03:13:43;51.8;32.1;62.8;;
65079;Laerm;52655;52.218;5.964;2023-02-26T03:17:59;37.9;34.3;53.4;;
65079;Laerm;52655;52.218;5.964;2023-02-26T03:20:18;37.3;32.6;51.3;;
65079;Laerm;52655;52.218;5.964;2023-02-26T03:21:56;40.0;33.2;57.8;;
65079;Laerm;52655;52.218;5.964;2023-02-26T03:23:45;36.9;33.2;49.3;;
65079;Laerm;52655;52.218;5.964;2023-02-26T03:25:49;38.8;33.3;54.3;;
65079;Laerm;52655;52.218;5.964;2023-02-26T03:27:45;38.9;32.0;48.1;;
65079;Laerm;52655;52.218;5.964;2023-02-26T03:29:50;39.0;31.3;46.6;;
65079;Laerm;52655;52.218;5.964;2023-02-26T03:31:53;36.5;32.0;47.9;;
65079;Laerm;52655;52.218;5.964;2023-02-26T03:34:04;34.9;30.5;55.8;;
65079;Laerm;52655;52.218;5.964;2023-02-26T03:35:46;37.8;31.6;55.6;;
65079;Laerm;52655;52.218;5.964;2023-02-26T03:37:45;34.1;31.0;41.7;;
65079;Laerm;52655;52.218;5.964;2023-02-26T03:39:45;34.3;31.4;41.0;;
65079;Laerm;52655;52.218;5.964;2023-02-26T03:41:45;38.4;31.3;56.6;;
65079;Laerm;52655;52.218;5.964;2023-02-26T03:43:45;39.9;31.3;54.6;;
65079;Laerm;52655;52.218;5.964;2023-02-26T03:45:45;34.4;30.8;50.8;;
65079;Laerm;52655;52.218;5.964;2023-02-26T03:47:46;37.7;30.9;56.7;;
65079;Laerm;52655;52.218;5.964;2023-02-26T03:49:49;35.3;30.4;50.8;;
65079;Laerm;52655;52.218;5.964;2023-02-26T03:51:44;33.4;31.0;39.0;;
65079;Laerm;52655;52.218;5.964;2023-02-26T03:53:46;34.9;31.4;45.5;;
65079;Laerm;52655;52.218;5.964;2023-02-26T03:55:45;36.8;32.0;48.6;;
65079;Laerm;52655;52.218;5.964;2023-02-26T03:57:45;39.1;33.5;56.3;;
65079;Laerm;52655;52.218;5.964;2023-02-26T03:59:45;35.4;32.2;37.8;;
65079;Laerm;52655;52.218;5.964;2023-02-26T04:01:55;34.4;30.8;49.8;;
65079;Laerm;52655;52.218;5.964;2023-02-26T04:04:05;33.1;30.9;35.7;;
65079;Laerm;52655;52.218;5.964;2023-02-26T04:05:48;34.9;31.2;42.6;;
65079;Laerm;52655;52.218;5.964;2023-02-26T04:09:46;38.0;32.4;56.3;;
65079;Laerm;52655;52.218;5.964;2023-02-26T04:11:45;34.6;32.1;39.8;;
65079;Laerm;52655;52.218;5.964;2023-02-26T04:13:45;36.5;34.1;38.8;;
65079;Laerm;52655;52.218;5.964;2023-02-26T04:15:45;36.7;33.1;41.3;;
65079;Laerm;52655;52.218;5.964;2023-02-26T04:17:45;33.9;31.8;41.4;;
65079;Laerm;52655;52.218;5.964;2023-02-26T04:19:45;34.4;31.8;40.8;;
65079;Laerm;52655;52.218;5.964;2023-02-26T04:21:45;34.6;32.2;38.0;;
65079;Laerm;52655;52.218;5.964;2023-02-26T04:23:45;38.4;33.0;54.4;;
65079;Laerm;52655;52.218;5.964;2023-02-26T04:25:45;37.6;31.6;55.3;;
65079;Laerm;52655;52.218;5.964;2023-02-26T04:27:45;34.4;32.1;37.3;;
65079;Laerm;52655;52.218;5.964;2023-02-26T04:29:45;34.4;31.8;46.3;;
65079;Laerm;52655;52.218;5.964;2023-02-26T04:31:46;34.1;31.4;47.5;;
65079;Laerm;52655;52.218;5.964;2023-02-26T04:33:46;33.5;31.3;36.1;;
65079;Laerm;52655;52.218;5.964;2023-02-26T04:35:46;33.5;31.1;38.7;;
65079;Laerm;52655;52.218;5.964;2023-02-26T04:37:46;36.3;32.2;41.2;;
65079;Laerm;52655;52.218;5.964;2023-02-26T04:39:46;42.2;35.3;50.5;;
65079;Laerm;52655;52.218;5.964;2023-02-26T04:41:46;36.0;32.2;43.4;;
65079;Laerm;52655;52.218;5.964;2023-02-26T04:43:46;37.8;31.6;55.6;;
65079;Laerm;52655;52.218;5.964;2023-02-26T04:45:46;34.4;31.8;38.8;;
65079;Laerm;52655;52.218;5.964;2023-02-26T04:47:46;40.2;32.4;50.3;;
65079;Laerm;52655;52.218;5.964;2023-02-26T04:49:46;35.5;31.4;41.8;;
65079;Laerm;52655;52.218;5.964;2023-02-26T04:51:46;34.4;31.2;41.4;;
65079;Laerm;52655;52.218;5.964;2023-02-26T04:53:46;34.6;31.1;40.5;;
65079;Laerm;52655;52.218;5.964;2023-02-26T04:55:46;37.6;31.2;55.6;;
65079;Laerm;52655;52.218;5.964;2023-02-26T04:57:46;33.7;30.8;39.1;;
65079;Laerm;52655;52.218;5.964;2023-02-26T04:59:46;34.3;31.4;38.8;;
65079;Laerm;52655;52.218;5.964;2023-02-26T05:01:46;37.4;31.2;52.6;;
65079;Laerm;52655;52.218;5.964;2023-02-26T05:03:46;33.5;31.0;38.3;;
65079;Laerm;52655;52.218;5.964;2023-02-26T05:05:47;40.0;30.8;56.8;;
65079;Laerm;52655;52.218;5.964;2023-02-26T05:07:46;37.7;34.5;44.3;;
65079;Laerm;52655;52.218;5.964;2023-02-26T05:09:46;37.1;32.8;50.8;;
65079;Laerm;52655;52.218;5.964;2023-02-26T05:11:47;33.2;31.0;36.7;;
65079;Laerm;52655;52.218;5.964;2023-02-26T05:13:47;37.1;31.5;47.7;;
65079;Laerm;52655;52.218;5.964;2023-02-26T05:15:47;36.4;31.8;46.4;;
65079;Laerm;52655;52.218;5.964;2023-02-26T05:17:47;33.7;30.8;40.4;;
65079;Laerm;52655;52.218;5.964;2023-02-26T05:19:47;34.8;31.6;42.9;;
65079;Laerm;52655;52.218;5.964;2023-02-26T05:21:47;36.8;32.0;46.8;;
65079;Laerm;52655;52.218;5.964;2023-02-26T05:23:47;38.9;31.9;58.3;;
65079;Laerm;52655;52.218;5.964;2023-02-26T05:25:47;41.1;32.6;61.5;;
65079;Laerm;52655;52.218;5.964;2023-02-26T05:27:47;37.8;32.4;52.0;;
65079;Laerm;52655;52.218;5.964;2023-02-26T05:31:47;41.2;33.1;52.8;;
65079;Laerm;52655;52.218;5.964;2023-02-26T05:37:47;41.4;34.9;54.6;;
65079;Laerm;52655;52.218;5.964;2023-02-26T05:39:47;38.9;33.0;49.3;;
65079;Laerm;52655;52.218;5.964;2023-02-26T05:41:47;37.3;32.2;47.6;;
65079;Laerm;52655;52.218;5.964;2023-02-26T05:43:47;39.7;32.5;55.8;;
65079;Laerm;52655;52.218;5.964;2023-02-26T05:45:48;39.9;32.3;52.8;;
65079;Laerm;52655;52.218;5.964;2023-02-26T05:47:48;48.0;34.3;60.7;;
65079;Laerm;52655;52.218;5.964;2023-02-26T05:49:48;40.6;32.9;55.8;;
65079;Laerm;52655;52.218;5.964;2023-02-26T05:51:48;39.5;32.4;53.9;;
65079;Laerm;52655;52.218;5.964;2023-02-26T05:53:48;40.5;32.6;56.7;;
65079;Laerm;52655;52.218;5.964;2023-02-26T05:57:48;34.9;31.8;42.5;;
65079;Laerm;52655;52.218;5.964;2023-02-26T06:01:48;45.2;33.3;57.1;;
65079;Laerm;52655;52.218;5.964;2023-02-26T06:03:48;35.0;32.1;47.5;;
65079;Laerm;52655;52.218;5.964;2023-02-26T06:05:48;43.9;32.1;58.5;;
65079;Laerm;52655;52.218;5.964;2023-02-26T06:07:48;38.2;31.5;50.0;;
65079;Laerm;52655;52.218;5.964;2023-02-26T06:09:48;43.3;32.2;53.9;;
65079;Laerm;52655;52.218;5.964;2023-02-26T06:11:48;39.4;34.7;51.2;;
65079;Laerm;52655;52.218;5.964;2023-02-26T06:13:48;37.8;33.7;49.2;;
65079;Laerm;52655;52.218;5.964;2023-02-26T06:15:49;36.3;32.5;43.5;;
65079;Laerm;52655;52.218;5.964;2023-02-26T06:17:49;38.7;34.1;51.8;;
65079;Laerm;52655;52.218;5.964;2023-02-26T06:19:56;43.1;34.4;52.9;;
65079;Laerm;52655;52.218;5.964;2023-02-26T06:21:49;44.4;33.6;65.0;;
65079;Laerm;52655;52.218;5.964;2023-02-26T06:23:49;37.7;33.0;51.4;;
65079;Laerm;52655;52.218;5.964;2023-02-26T06:25:49;39.7;33.2;55.8;;
65079;Laerm;52655;52.218;5.964;2023-02-26T06:27:49;38.4;34.4;48.4;;
65079;Laerm;52655;52.218;5.964;2023-02-26T06:29:49;44.2;34.3;62.8;;
65079;Laerm;52655;52.218;5.964;2023-02-26T06:31:49;41.8;34.7;53.1;;
65079;Laerm;52655;52.218;5.964;2023-02-26T06:33:49;46.0;33.4;63.0;;
65079;Laerm;52655;52.218;5.964;2023-02-26T06:35:49;49.2;33.8;63.0;;
65079;Laerm;52655;52.218;5.964;2023-02-26T06:37:49;43.5;33.3;59.0;;
65079;Laerm;52655;52.218;5.964;2023-02-26T06:41:49;42.8;33.3;61.0;;
65079;Laerm;52655;52.218;5.964;2023-02-26T06:43:49;42.6;35.6;59.0;;
65079;Laerm;52655;52.218;5.964;2023-02-26T06:45:49;43.5;35.5;60.0;;
65079;Laerm;52655;52.218;5.964;2023-02-26T06:47:49;42.5;33.3;57.0;;
65079;Laerm;52655;52.218;5.964;2023-02-26T06:49:49;47.4;33.7;60.8;;
65079;Laerm;52655;52.218;5.964;2023-02-26T06:51:49;44.0;32.3;61.0;;
65079;Laerm;52655;52.218;5.964;2023-02-26T06:53:49;53.1;34.0;64.4;;
65079;Laerm;52655;52.218;5.964;2023-02-26T06:55:51;49.2;34.4;64.0;;
65079;Laerm;52655;52.218;5.964;2023-02-26T06:57:50;46.9;33.8;63.0;;
65079;Laerm;52655;52.218;5.964;2023-02-26T07:03:50;40.6;33.8;55.3;;
65079;Laerm;52655;52.218;5.964;2023-02-26T07:05:50;42.5;34.3;56.9;;
65079;Laerm;52655;52.218;5.964;2023-02-26T07:07:50;41.6;33.9;54.4;;
65079;Laerm;52655;52.218;5.964;2023-02-26T07:09:50;40.9;34.0;57.0;;
65079;Laerm;52655;52.218;5.964;2023-02-26T07:11:50;39.5;34.1;51.3;;
65079;Laerm;52655;52.218;5.964;2023-02-26T07:13:50;37.5;33.6;44.3;;
65079;Laerm;52655;52.218;5.964;2023-02-26T07:15:50;39.7;33.2;56.0;;
65079;Laerm;52655;52.218;5.964;2023-02-26T07:17:50;38.9;33.4;55.3;;
65079;Laerm;52655;52.218;5.964;2023-02-26T07:19:50;42.6;33.7;59.8;;
65079;Laerm;52655;52.218;5.964;2023-02-26T07:21:50;43.5;34.3;58.8;;
65079;Laerm;52655;52.218;5.964;2023-02-26T07:23:50;41.6;35.2;58.5;;
65079;Laerm;52655;52.218;5.964;2023-02-26T07:25:50;39.9;35.5;54.9;;
65079;Laerm;52655;52.218;5.964;2023-02-26T07:27:51;43.2;33.4;63.0;;
65079;Laerm;52655;52.218;5.964;2023-02-26T07:29:50;40.9;34.0;55.9;;
65079;Laerm;52655;52.218;5.964;2023-02-26T07:31:50;42.6;34.8;58.4;;
65079;Laerm;52655;52.218;5.964;2023-02-26T07:33:51;47.8;34.2;58.6;;
65079;Laerm;52655;52.218;5.964;2023-02-26T07:35:51;40.9;34.5;51.2;;
65079;Laerm;52655;52.218;5.964;2023-02-26T07:37:51;48.9;40.5;55.8;;
65079;Laerm;52655;52.218;5.964;2023-02-26T07:39:51;51.5;45.6;65.7;;
65079;Laerm;52655;52.218;5.964;2023-02-26T07:43:51;54.9;50.2;63.7;;
65079;Laerm;52655;52.218;5.964;2023-02-26T07:45:51;55.4;50.0;63.9;;
65079;Laerm;52655;52.218;5.964;2023-02-26T07:47:51;54.6;50.5;58.2;;
65079;Laerm;52655;52.218;5.964;2023-02-26T07:49:51;54.1;50.0;59.0;;
65079;Laerm;52655;52.218;5.964;2023-02-26T07:51:51;54.9;49.7;59.5;;
65079;Laerm;52655;52.218;5.964;2023-02-26T07:53:51;54.4;49.7;58.5;;
65079;Laerm;52655;52.218;5.964;2023-02-26T07:55:51;54.4;49.7;57.5;;
65079;Laerm;52655;52.218;5.964;2023-02-26T07:57:51;54.3;48.7;60.7;;
65079;Laerm;52655;52.218;5.964;2023-02-26T07:59:51;52.2;47.4;61.0;;
65079;Laerm;52655;52.218;5.964;2023-02-26T08:01:51;50.2;45.7;55.1;;
65079;Laerm;52655;52.218;5.964;2023-02-26T08:03:51;50.4;46.2;58.2;;
65079;Laerm;52655;52.218;5.964;2023-02-26T08:05:51;48.6;43.7;70.4;;
65079;Laerm;52655;52.218;5.964;2023-02-26T08:07:51;47.6;42.8;55.7;;
65079;Laerm;52655;52.218;5.964;2023-02-26T08:11:52;45.6;39.9;60.0;;
65079;Laerm;52655;52.218;5.964;2023-02-26T08:13:52;44.8;39.7;64.5;;
65079;Laerm;52655;52.218;5.964;2023-02-26T08:15:52;45.0;39.9;56.9;;
65079;Laerm;52655;52.218;5.964;2023-02-26T08:17:52;45.0;38.3;56.2;;
65079;Laerm;52655;52.218;5.964;2023-02-26T08:19:52;45.0;37.8;57.8;;
65079;Laerm;52655;52.218;5.964;2023-02-26T08:23:54;46.8;39.0;59.8;;
65079;Laerm;52655;52.218;5.964;2023-02-26T08:25:58;45.6;37.6;55.7;;
65079;Laerm;52655;52.218;5.964;2023-02-26T08:27:52;48.7;39.3;59.6;;
65079;Laerm;52655;52.218;5.964;2023-02-26T08:29:52;43.5;37.1;55.7;;
65079;Laerm;52655;52.218;5.964;2023-02-26T08:31:52;42.9;37.8;54.1;;
65079;Laerm;52655;52.218;5.964;2023-02-26T08:33:52;52.4;37.8;64.1;;
65079;Laerm;52655;52.218;5.964;2023-02-26T08:35:52;49.5;39.5;59.9;;
65079;Laerm;52655;52.218;5.964;2023-02-26T08:37:52;50.9;39.1;64.1;;
65079;Laerm;52655;52.218;5.964;2023-02-26T08:39:52;47.6;38.1;57.3;;
65079;Laerm;52655;52.218;5.964;2023-02-26T08:41:53;47.1;39.1;58.5;;
65079;Laerm;52655;52.218;5.964;2023-02-26T08:43:53;46.5;39.7;55.9;;
65079;Laerm;52655;52.218;5.964;2023-02-26T08:45:53;45.9;38.3;57.9;;
65079;Laerm;52655;52.218;5.964;2023-02-26T08:47:53;47.8;39.3;59.8;;
65079;Laerm;52655;52.218;5.964;2023-02-26T08:49:53;48.8;41.5;59.3;;
65079;Laerm;52655;52.218;5.964;2023-02-26T08:51:53;46.8;39.4;63.6;;
65079;Laerm;52655;52.218;5.964;2023-02-26T08:53:53;49.6;37.6;60.1;;
65079;Laerm;52655;52.218;5.964;2023-02-26T08:55:53;44.9;37.5;61.9;;
65079;Laerm;52655;52.218;5.964;2023-02-26T08:57:53;43.5;37.7;53.0;;
65079;Laerm;52655;52.218;5.964;2023-02-26T08:59:53;47.1;36.1;64.7;;
65079;Laerm;52655;52.218;5.964;2023-02-26T09:01:53;44.2;37.4;61.5;;
65079;Laerm;52655;52.218;5.964;2023-02-26T09:03:53;44.4;37.8;57.8;;
65079;Laerm;52655;52.218;5.964;2023-02-26T09:05:53;42.9;37.0;56.5;;
65079;Laerm;52655;52.218;5.964;2023-02-26T09:07:53;42.1;37.0;51.1;;
65079;Laerm;52655;52.218;5.964;2023-02-26T09:09:53;45.9;35.1;57.9;;
65079;Laerm;52655;52.218;5.964;2023-02-26T09:11:53;46.9;38.6;73.0;;
65079;Laerm;52655;52.218;5.964;2023-02-26T09:13:53;48.6;37.1;65.8;;
65079;Laerm;52655;52.218;5.964;2023-02-26T09:15:53;47.7;36.5;59.4;;
65079;Laerm;52655;52.218;5.964;2023-02-26T09:17:54;46.9;36.0;60.7;;
65079;Laerm;52655;52.218;5.964;2023-02-26T09:19:54;48.6;37.6;65.9;;
65079;Laerm;52655;52.218;5.964;2023-02-26T09:21:54;46.0;36.0;60.3;;
65079;Laerm;52655;52.218;5.964;2023-02-26T09:23:54;42.7;35.8;52.0;;
65079;Laerm;52655;52.218;5.964;2023-02-26T09:27:54;44.8;36.5;53.3;;
65079;Laerm;52655;52.218;5.964;2023-02-26T09:29:54;46.8;36.8;60.3;;
65079;Laerm;52655;52.218;5.964;2023-02-26T09:31:54;50.0;34.7;63.2;;
65079;Laerm;52655;52.218;5.964;2023-02-26T09:33:54;45.5;37.5;58.6;;
65079;Laerm;52655;52.218;5.964;2023-02-26T09:35:55;48.9;36.8;62.2;;
65079;Laerm;52655;52.218;5.964;2023-02-26T09:37:54;48.4;37.8;62.1;;
65079;Laerm;52655;52.218;5.964;2023-02-26T09:39:54;50.2;38.0;63.1;;
65079;Laerm;52655;52.218;5.964;2023-02-26T09:41:55;43.3;37.3;51.7;;
65079;Laerm;52655;52.218;5.964;2023-02-26T09:44:25;47.8;39.6;70.7;;
65079;Laerm;52655;52.218;5.964;2023-02-26T09:45:55;45.2;38.4;60.1;;
65079;Laerm;52655;52.218;5.964;2023-02-26T09:47:54;45.0;37.6;59.7;;
65079;Laerm;52655;52.218;5.964;2023-02-26T09:49:58;44.9;37.9;63.0;;
65079;Laerm;52655;52.218;5.964;2023-02-26T09:51:57;46.8;37.9;61.1;;
65079;Laerm;52655;52.218;5.964;2023-02-26T09:53:54;47.1;37.6;61.2;;
65079;Laerm;52655;52.218;5.964;2023-02-26T09:55:55;48.2;36.1;59.7;;
65079;Laerm;52655;52.218;5.964;2023-02-26T09:57:55;45.4;36.4;57.5;;
65079;Laerm;52655;52.218;5.964;2023-02-26T09:59:55;44.5;37.3;65.9;;
65079;Laerm;52655;52.218;5.964;2023-02-26T10:02:04;43.8;36.8;61.0;;
65079;Laerm;52655;52.218;5.964;2023-02-26T10:04:24;52.5;38.1;65.2;;
65079;Laerm;52655;52.218;5.964;2023-02-26T10:06:30;46.2;37.1;59.2;;
65079;Laerm;52655;52.218;5.964;2023-02-26T10:08:00;42.4;36.4;56.2;;
65079;Laerm;52655;52.218;5.964;2023-02-26T10:10:02;47.8;37.4;62.2;;
65079;Laerm;52655;52.218;5.964;2023-02-26T10:11:56;50.2;38.6;64.9;;
65079;Laerm;52655;52.218;5.964;2023-02-26T10:14:03;48.8;37.9;60.9;;
65079;Laerm;52655;52.218;5.964;2023-02-26T10:16:00;50.1;36.6;59.8;;
65079;Laerm;52655;52.218;5.964;2023-02-26T10:18:02;45.9;36.0;60.5;;
65079;Laerm;52655;52.218;5.964;2023-02-26T10:20:10;43.8;36.1;57.0;;
65079;Laerm;52655;52.218;5.964;2023-02-26T10:22:00;47.7;37.0;61.8;;
65079;Laerm;52655;52.218;5.964;2023-02-26T10:23:59;45.6;37.8;65.1;;
65079;Laerm;52655;52.218;5.964;2023-02-26T10:25:59;46.2;37.9;60.9;;
65079;Laerm;52655;52.218;5.964;2023-02-26T10:28:36;45.1;36.8;64.0;;
65079;Laerm;52655;52.218;5.964;2023-02-26T10:30:31;43.8;36.8;56.8;;
65079;Laerm;52655;52.218;5.964;2023-02-26T10:32:24;45.5;37.2;56.1;;
65079;Laerm;52655;52.218;5.964;2023-02-26T10:34:17;46.6;39.8;56.2;;
65079;Laerm;52655;52.218;5.964;2023-02-26T10:36:08;44.9;37.8;59.5;;
65079;Laerm;52655;52.218;5.964;2023-02-26T10:37:56;43.0;36.2;53.2;;
65079;Laerm;52655;52.218;5.964;2023-02-26T10:39:57;44.0;37.6;56.0;;
65079;Laerm;52655;52.218;5.964;2023-02-26T10:41:56;47.4;39.8;61.2;;
65079;Laerm;52655;52.218;5.964;2023-02-26T10:44:01;44.5;38.0;52.3;;
65079;Laerm;52655;52.218;5.964;2023-02-26T10:46:06;45.0;37.7;55.1;;
65079;Laerm;52655;52.218;5.964;2023-02-26T10:48:05;42.9;38.4;54.0;;
65079;Laerm;52655;52.218;5.964;2023-02-26T10:50:20;46.4;38.4;55.8;;
65079;Laerm;52655;52.218;5.964;2023-02-26T10:51:56;50.0;37.9;62.9;;
65079;Laerm;52655;52.218;5.964;2023-02-26T10:53:57;46.2;37.6;57.8;;
65079;Laerm;52655;52.218;5.964;2023-02-26T10:55:58;49.8;40.5;62.3;;
65079;Laerm;52655;52.218;5.964;2023-02-26T10:58:01;48.3;38.3;65.2;;
65079;Laerm;52655;52.218;5.964;2023-02-26T10:59:56;48.6;39.6;67.9;;
65079;Laerm;52655;52.218;5.964;2023-02-26T11:01:56;48.0;40.5;63.7;;
65079;Laerm;52655;52.218;5.964;2023-02-26T11:04:00;45.6;37.9;58.5;;
65079;Laerm;52655;52.218;5.964;2023-02-26T11:05:56;52.5;38.3;73.9;;
65079;Laerm;52655;52.218;5.964;2023-02-26T11:07:58;48.9;42.9;67.4;;
65079;Laerm;52655;52.218;5.964;2023-02-26T11:09:57;52.6;37.1;72.0;;
65079;Laerm;52655;52.218;5.964;2023-02-26T11:12:00;45.8;37.6;56.3;;
65079;Laerm;52655;52.218;5.964;2023-02-26T11:13:57;45.8;39.2;55.3;;
65079;Laerm;52655;52.218;5.964;2023-02-26T11:16:01;47.4;37.3;60.3;;
65079;Laerm;52655;52.218;5.964;2023-02-26T11:17:57;49.3;39.5;60.9;;
65079;Laerm;52655;52.218;5.964;2023-02-26T11:19:57;50.3;39.5;71.2;;
65079;Laerm;52655;52.218;5.964;2023-02-26T11:21:57;46.1;38.0;57.1;;
65079;Laerm;52655;52.218;5.964;2023-02-26T11:23:59;44.7;38.2;56.9;;
65079;Laerm;52655;52.218;5.964;2023-02-26T11:25:59;48.4;40.1;58.4;;
65079;Laerm;52655;52.218;5.964;2023-02-26T11:28:00;48.7;39.0;68.3;;
65079;Laerm;52655;52.218;5.964;2023-02-26T11:29:58;49.2;41.1;60.8;;
65079;Laerm;52655;52.218;5.964;2023-02-26T11:34:01;50.1;40.2;70.9;;
65079;Laerm;52655;52.218;5.964;2023-02-26T11:36:07;48.6;40.7;61.3;;
65079;Laerm;52655;52.218;5.964;2023-02-26T11:39:58;61.0;37.4;83.6;;
65079;Laerm;52655;52.218;5.964;2023-02-26T11:41:58;45.9;39.0;61.6;;
65079;Laerm;52655;52.218;5.964;2023-02-26T11:45:59;47.9;39.9;63.7;;
65079;Laerm;52655;52.218;5.964;2023-02-26T11:47:58;45.9;39.3;56.8;;
65079;Laerm;52655;52.218;5.964;2023-02-26T11:49:59;44.1;37.0;61.4;;
65079;Laerm;52655;52.218;5.964;2023-02-26T11:52:14;46.4;37.4;57.5;;
65079;Laerm;52655;52.218;5.964;2023-02-26T11:53:58;51.0;40.2;63.1;;
65079;Laerm;52655;52.218;5.964;2023-02-26T11:56:02;50.5;41.5;62.4;;
65079;Laerm;52655;52.218;5.964;2023-02-26T11:57:58;46.9;38.9;59.2;;
65079;Laerm;52655;52.218;5.964;2023-02-26T12:00:00;47.4;39.8;61.2;;
65079;Laerm;52655;52.218;5.964;2023-02-26T12:02:05;46.2;38.7;59.5;;
65079;Laerm;52655;52.218;5.964;2023-02-26T12:03:59;49.6;39.1;69.1;;
65079;Laerm;52655;52.218;5.964;2023-02-26T12:05:58;46.5;40.3;62.6;;
65079;Laerm;52655;52.218;5.964;2023-02-26T12:07:58;47.0;39.7;64.5;;
65079;Laerm;52655;52.218;5.964;2023-02-26T12:09:58;45.9;38.4;62.0;;
65079;Laerm;52655;52.218;5.964;2023-02-26T12:11:59;45.6;38.3;57.1;;
65079;Laerm;52655;52.218;5.964;2023-02-26T12:14:20;45.9;39.4;60.2;;
65079;Laerm;52655;52.218;5.964;2023-02-26T12:16:12;46.4;38.0;54.3;;
65079;Laerm;52655;52.218;5.964;2023-02-26T12:18:16;45.9;39.1;61.0;;